createdAt,value
2023-05-15T00:00:40.925Z,63.99
2023-05-15T00:01:40.930Z,61.54
2023-05-15T00:02:41.017Z,63.18
2023-05-15T00:03:41.000Z,64.40
2023-05-15T00:04:40.891Z,63.38
2023-05-15T00:05:40.863Z,64.09
2023-05-15T00:06:40.855Z,67.08
2023-05-15T00:07:40.858Z,67.59
2023-05-15T00:08:40.830Z,66.77
2023-05-15T00:09:40.820Z,66.16
2023-05-15T00:10:44.892Z,62.59
2023-05-15T00:11:40.799Z,63.61
2023-05-15T00:12:40.792Z,63.61
2023-05-15T00:13:40.777Z,62.59
2023-05-15T00:14:40.763Z,64.63
2023-05-15T00:15:40.878Z,66.91
2023-05-15T00:16:40.936Z,61.40
2023-05-15T00:17:40.774Z,59.94
2023-05-15T00:18:40.805Z,59.74
2023-05-15T00:19:40.705Z,58.62
2023-05-15T00:20:40.787Z,57.80
2023-05-15T00:21:40.693Z,57.83
2023-05-15T00:22:40.685Z,58.54
2023-05-15T00:23:40.678Z,58.75
2023-05-15T00:24:40.653Z,57.93
2023-05-15T00:25:40.644Z,58.23
2023-05-15T00:26:40.627Z,63.13
2023-05-15T00:27:40.618Z,64.08
2023-05-15T00:28:40.604Z,57.96
2023-05-15T00:29:40.598Z,55.69
2023-05-15T00:30:40.588Z,55.51
2023-05-15T00:31:40.622Z,54.49
2023-05-15T00:32:40.627Z,52.75
2023-05-15T00:33:40.555Z,53.44
2023-05-15T00:34:40.572Z,55.30
2023-05-15T00:35:40.530Z,53.36
2023-05-15T00:36:40.534Z,54.90
2023-05-15T00:37:40.512Z,53.98
2023-05-15T00:38:40.525Z,58.87
2023-05-15T00:39:40.487Z,58.37
2023-05-15T00:40:40.480Z,57.57
2023-05-15T00:41:40.466Z,57.75
2023-05-15T00:42:40.452Z,55.23
2023-05-15T00:43:40.441Z,55.74
2023-05-15T00:44:40.430Z,56.45
2023-05-15T00:45:40.421Z,61.25
2023-05-15T00:46:40.435Z,58.50
2023-05-15T00:47:40.425Z,54.92
2023-05-15T00:48:40.390Z,53.80
2023-05-15T00:49:40.375Z,51.76
2023-05-15T00:50:40.391Z,56.56
2023-05-15T00:51:40.354Z,52.98
2023-05-15T00:52:40.347Z,52.67
2023-05-15T00:53:40.425Z,59.21
2023-05-15T00:54:40.318Z,55.63
2023-05-15T00:55:40.311Z,53.39
2023-05-15T00:56:40.296Z,59.31
2023-05-15T00:57:40.285Z,58.52
2023-05-15T00:58:40.270Z,59.72
2023-05-15T00:59:40.281Z,60.46
2023-05-15T01:00:40.270Z,59.85
2023-05-15T01:01:40.276Z,57.50
2023-05-15T01:02:40.326Z,57.09
2023-05-15T01:03:40.306Z,56.38
2023-05-15T01:04:40.207Z,53.72
2023-05-15T01:05:40.198Z,51.17
2023-05-15T01:06:40.256Z,49.74
2023-05-15T01:07:40.168Z,48.61
2023-05-15T01:08:40.157Z,51.78
2023-05-15T01:09:40.146Z,51.98
2023-05-15T01:10:40.140Z,51.78
2023-05-15T01:11:40.131Z,49.22
2023-05-15T01:12:40.112Z,50.15
2023-05-15T01:13:40.119Z,54.23
2023-05-15T01:14:40.087Z,52.91
2023-05-15T01:15:40.079Z,50.25
2023-05-15T01:16:40.065Z,50.25
2023-05-15T01:17:40.109Z,50.45
2023-05-15T01:18:40.258Z,52.91
2023-05-15T01:19:40.201Z,53.11
2023-05-15T01:20:40.041Z,50.17
2023-05-15T01:21:40.007Z,48.41
2023-05-15T01:22:40.031Z,45.45
2023-05-15T01:23:39.996Z,45.14
2023-05-15T01:24:39.975Z,43.61
2023-05-15T01:25:39.968Z,44.53
2023-05-15T01:26:39.957Z,41.77
2023-05-15T01:27:39.944Z,42.49
2023-05-15T01:28:39.933Z,41.77
2023-05-15T01:29:39.922Z,40.67
2023-05-15T01:30:39.911Z,44.55
2023-05-15T01:31:39.970Z,45.57
2023-05-15T01:32:39.906Z,43.12
2023-05-15T01:33:39.879Z,47.41
2023-05-15T01:34:39.859Z,51.09
2023-05-15T01:35:39.851Z,47.00
2023-05-15T01:36:39.845Z,48.43
2023-05-15T01:37:39.828Z,46.29
2023-05-15T01:38:39.921Z,44.45
2023-05-15T01:39:39.811Z,51.50
2023-05-15T01:40:39.793Z,48.86
2023-05-15T01:41:39.788Z,51.21
2023-05-15T01:42:39.770Z,48.76
2023-05-15T01:43:39.759Z,46.62
2023-05-15T01:44:39.747Z,46.51
2023-05-15T01:45:39.753Z,48.86
2023-05-15T01:46:39.890Z,50.91
2023-05-15T01:47:39.759Z,46.11
2023-05-15T01:48:39.704Z,45.90
2023-05-15T01:49:39.700Z,46.41
2023-05-15T01:50:39.684Z,45.59
2023-05-15T01:51:39.680Z,47.03
2023-05-15T01:52:39.656Z,44.26
2023-05-15T01:53:39.645Z,41.30
2023-05-15T01:54:39.662Z,40.08
2023-05-15T01:55:39.622Z,41.09
2023-05-15T01:56:39.609Z,44.08
2023-05-15T01:57:39.602Z,45.20
2023-05-15T01:58:39.589Z,41.52
2023-05-15T01:59:39.581Z,42.96
2023-05-15T02:00:39.566Z,42.34
2023-05-15T02:01:39.613Z,41.32
2023-05-15T02:02:39.628Z,41.22
2023-05-15T02:03:39.592Z,41.32
2023-05-15T02:04:39.521Z,42.34
2023-05-15T02:05:39.518Z,41.73
2023-05-15T02:06:39.502Z,48.89
2023-05-15T02:07:39.493Z,42.65
2023-05-15T02:08:39.474Z,44.49
2023-05-15T02:09:39.468Z,42.77
2023-05-15T02:10:39.478Z,45.94
2023-05-15T02:11:39.457Z,44.31
2023-05-15T02:12:39.440Z,48.60
2023-05-15T02:13:39.420Z,45.25
2023-05-15T02:14:39.419Z,42.38
2023-05-15T02:15:39.414Z,44.20
2023-05-15T02:16:39.526Z,40.01
2023-05-15T02:17:39.509Z,40.21
2023-05-15T02:18:39.550Z,44.82
2023-05-15T02:19:39.481Z,44.53
2023-05-15T02:20:39.462Z,44.02
2023-05-15T02:21:39.472Z,41.46
2023-05-15T02:22:39.547Z,45.35
2023-05-15T02:23:39.325Z,47.09
2023-05-15T02:24:39.319Z,42.90
2023-05-15T02:25:39.295Z,38.70
2023-05-15T02:26:39.306Z,34.38
2023-05-15T02:27:39.277Z,32.95
2023-05-15T02:28:39.259Z,31.51
2023-05-15T02:29:39.250Z,29.68
2023-05-15T02:30:39.239Z,29.36
2023-05-15T02:31:39.261Z,29.57
2023-05-15T02:32:39.280Z,28.75
2023-05-15T02:33:39.205Z,29.06
2023-05-15T02:34:39.189Z,30.90
2023-05-15T02:35:39.188Z,35.42
2023-05-15T02:36:39.166Z,33.47
2023-05-15T02:37:39.160Z,36.04
2023-05-15T02:38:39.153Z,37.77
2023-05-15T02:39:39.134Z,31.84
2023-05-15T02:40:39.124Z,33.89
2023-05-15T02:41:39.112Z,35.33
2023-05-15T02:42:39.128Z,36.36
2023-05-15T02:43:39.092Z,34.31
2023-05-15T02:44:39.075Z,36.96
2023-05-15T02:45:39.097Z,37.69
2023-05-15T02:46:39.066Z,37.18
2023-05-15T02:47:39.096Z,34.92
2023-05-15T02:48:39.033Z,35.23
2023-05-15T02:49:39.037Z,33.90
2023-05-15T02:50:39.014Z,37.79
2023-05-15T02:51:39.028Z,36.56
2023-05-15T02:52:38.999Z,37.48
2023-05-15T02:53:38.974Z,35.95
2023-05-15T02:54:38.961Z,37.69
2023-05-15T02:55:38.954Z,32.78
2023-05-15T02:56:38.941Z,39.74
2023-05-15T02:57:38.966Z,44.35
2023-05-15T02:58:38.956Z,42.93
2023-05-15T02:59:38.921Z,37.90
2023-05-15T03:00:38.896Z,36.66
2023-05-15T03:01:38.998Z,39.25
2023-05-15T03:02:38.889Z,35.66
2023-05-15T03:03:38.864Z,31.34
2023-05-15T03:04:38.931Z,36.05
2023-05-15T03:05:38.839Z,37.81
2023-05-15T03:06:38.835Z,35.14
2023-05-15T03:07:38.817Z,33.00
2023-05-15T03:08:38.817Z,28.47
2023-05-15T03:09:38.799Z,27.96
2023-05-15T03:10:38.789Z,29.82
2023-05-15T03:11:38.781Z,32.79
2023-05-15T03:12:38.757Z,36.27
2023-05-15T03:13:38.762Z,31.15
2023-05-15T03:14:38.770Z,31.97
2023-05-15T03:15:38.732Z,33.61
2023-05-15T03:16:38.779Z,31.46
2023-05-15T03:17:38.735Z,28.49
2023-05-15T03:18:38.704Z,30.74
2023-05-15T03:19:38.687Z,33.51
2023-05-15T03:20:38.684Z,29.82
2023-05-15T03:21:38.664Z,29.00
2023-05-15T03:22:38.654Z,24.18
2023-05-15T03:23:38.641Z,22.33
2023-05-15T03:24:38.636Z,19.97
2023-05-15T03:25:38.617Z,19.05
2023-05-15T03:26:38.607Z,18.33
2023-05-15T03:27:38.598Z,19.25
2023-05-15T03:28:39.678Z,17.21
2023-05-15T03:29:38.577Z,17.61
2023-05-15T03:30:38.588Z,17.21
2023-05-15T03:31:38.579Z,17.31
2023-05-15T03:32:38.559Z,18.54
2023-05-15T03:33:38.566Z,18.23
2023-05-15T03:34:40.948Z,17.61
2023-05-15T03:35:38.512Z,18.23
2023-05-15T03:36:38.511Z,17.31
2023-05-15T03:37:38.488Z,20.07
2023-05-15T03:38:38.472Z,18.84
2023-05-15T03:39:38.479Z,17.82
2023-05-15T03:40:38.454Z,22.94
2023-05-15T03:41:38.437Z,20.38
2023-05-15T03:42:38.435Z,22.12
2023-05-15T03:43:38.471Z,22.43
2023-05-15T03:44:38.406Z,23.45
2023-05-15T03:45:38.403Z,21.83
2023-05-15T03:46:38.737Z,22.13
2023-05-15T03:47:38.412Z,23.97
2023-05-15T03:48:38.358Z,24.49
2023-05-15T03:49:38.352Z,22.24
2023-05-15T03:50:38.336Z,19.88
2023-05-15T03:51:38.332Z,16.70
2023-05-15T03:52:39.585Z,2.76
2023-05-15T03:53:38.305Z,5.32
2023-05-15T03:54:38.293Z,0.00
2023-05-15T03:55:38.293Z,0.00
2023-05-15T03:56:38.300Z,0.00
2023-05-15T03:57:38.260Z,0.00
2023-05-15T03:58:38.250Z,0.00
2023-05-15T03:59:38.241Z,0.00
2023-05-15T04:00:38.802Z,0.00
2023-05-15T04:01:50.394Z,0.00
2023-05-15T04:02:39.355Z,0.00
2023-05-15T04:03:38.258Z,0.00
2023-05-15T04:04:38.257Z,0.00
2023-05-15T04:05:38.185Z,0.00
2023-05-15T04:06:38.161Z,0.00
2023-05-15T04:07:38.168Z,0.00
2023-05-15T04:08:39.680Z,0.00
2023-05-15T04:09:38.128Z,0.00
2023-05-15T04:10:38.161Z,0.00
2023-05-15T04:11:38.131Z,0.00
2023-05-15T04:12:38.129Z,0.00
2023-05-15T04:13:38.092Z,0.00
2023-05-15T04:14:38.107Z,0.00
2023-05-15T04:15:38.069Z,0.00
2023-05-15T04:16:38.117Z,0.00
2023-05-15T04:17:38.074Z,0.00
2023-05-15T04:18:38.084Z,0.00
2023-05-15T04:19:38.024Z,0.00
2023-05-15T04:20:38.042Z,0.00
2023-05-15T04:21:38.018Z,0.00
2023-05-15T04:22:37.988Z,0.00
2023-05-15T04:23:38.007Z,0.00
2023-05-15T04:24:38.280Z,0.00
2023-05-15T04:25:37.969Z,0.00
2023-05-15T04:26:37.957Z,0.00
2023-05-15T04:27:38.113Z,0.00
2023-05-15T04:28:37.917Z,0.00
2023-05-15T04:29:37.914Z,0.00
2023-05-15T04:30:37.892Z,0.00
2023-05-15T04:31:37.891Z,0.00
2023-05-15T04:32:37.915Z,0.00
2023-05-15T04:33:37.861Z,0.00
2023-05-15T04:34:37.985Z,0.00
2023-05-15T04:35:37.837Z,0.00
2023-05-15T04:36:42.866Z,0.00
2023-05-15T04:37:37.815Z,0.00
2023-05-15T04:38:37.808Z,0.00
2023-05-15T04:39:37.820Z,0.00
2023-05-15T04:40:37.794Z,1.12
2023-05-15T04:41:37.762Z,3.16
2023-05-15T04:42:38.821Z,9.16
2023-05-15T04:43:38.310Z,10.69
2023-05-15T04:44:37.787Z,17.31
2023-05-15T04:45:37.722Z,16.19
2023-05-15T04:46:37.839Z,21.39
2023-05-15T04:47:37.868Z,26.58
2023-05-15T04:48:37.691Z,23.31
2023-05-15T04:49:37.676Z,25.85
2023-05-15T04:50:37.690Z,32.57
2023-05-15T04:51:37.664Z,30.94
2023-05-15T04:52:37.647Z,36.55
2023-05-15T04:53:37.634Z,35.02
2023-05-15T04:54:37.624Z,39.50
2023-05-15T04:55:37.614Z,39.38
2023-05-15T04:56:37.604Z,39.69
2023-05-15T04:57:37.628Z,49.96
2023-05-15T04:58:37.631Z,48.54
2023-05-15T04:59:37.582Z,51.39
2023-05-15T05:00:37.556Z,48.43
2023-05-15T05:01:37.587Z,48.82
2023-05-15T05:02:37.568Z,53.27
2023-05-15T05:03:37.565Z,59.57
2023-05-15T05:04:37.516Z,61.53
2023-05-15T05:05:37.505Z,59.88
2023-05-15T05:06:37.516Z,63.02
2023-05-15T05:07:37.478Z,63.23
2023-05-15T05:08:37.477Z,66.28
2023-05-15T05:09:37.458Z,61.91
2023-05-15T05:10:37.449Z,63.54
2023-05-15T05:11:37.439Z,65.44
2023-05-15T05:12:37.428Z,67.67
2023-05-15T05:13:37.434Z,69.47
2023-05-15T05:14:37.465Z,73.46
2023-05-15T05:15:37.433Z,73.36
2023-05-15T05:16:37.424Z,71.53
2023-05-15T05:17:37.470Z,71.53
2023-05-15T05:18:37.390Z,71.03
2023-05-15T05:19:37.358Z,72.04
2023-05-15T05:20:37.342Z,70.21
2023-05-15T05:21:37.319Z,69.60
2023-05-15T05:22:37.341Z,71.23
2023-05-15T05:23:37.301Z,72.45
2023-05-15T05:24:37.297Z,72.65
2023-05-15T05:25:37.284Z,69.09
2023-05-15T05:26:37.267Z,75.29
2023-05-15T05:27:37.255Z,75.19
2023-05-15T05:28:37.254Z,75.97
2023-05-15T05:29:37.278Z,77.97
2023-05-15T05:30:37.258Z,79.75
2023-05-15T05:31:37.285Z,88.44
2023-05-15T05:32:37.266Z,91.19
2023-05-15T05:33:37.194Z,99.99
2023-05-15T05:34:37.204Z,99.99
2023-05-15T05:35:37.165Z,99.99
2023-05-15T05:36:37.151Z,99.99
2023-05-15T05:37:38.833Z,99.99
2023-05-15T05:38:37.157Z,99.99
2023-05-15T05:39:37.118Z,99.99
2023-05-15T05:40:37.106Z,99.99
2023-05-15T05:41:37.095Z,99.99
2023-05-15T05:42:37.091Z,99.99
2023-05-15T05:43:37.079Z,99.99
2023-05-15T05:44:37.076Z,99.99
2023-05-15T05:45:37.100Z,99.99
2023-05-15T05:46:37.145Z,99.99
2023-05-15T05:47:37.066Z,99.99
2023-05-15T05:48:37.021Z,99.99
2023-05-15T05:49:37.009Z,99.99
2023-05-15T05:50:36.993Z,99.99
2023-05-15T05:51:37.019Z,99.99
2023-05-15T05:52:37.102Z,99.99
2023-05-15T05:53:37.698Z,99.99
2023-05-15T05:54:36.973Z,99.99
2023-05-15T05:55:36.932Z,99.99
2023-05-15T05:56:36.924Z,99.99
2023-05-15T05:57:36.912Z,99.99
2023-05-15T05:58:36.923Z,99.99
2023-05-15T05:59:36.887Z,99.99
2023-05-15T06:00:36.876Z,99.80
2023-05-15T06:01:36.862Z,99.99
2023-05-15T06:02:36.916Z,99.99
2023-05-15T06:03:36.905Z,99.99
2023-05-15T06:04:37.088Z,99.99
2023-05-15T06:05:36.863Z,96.81
2023-05-15T06:06:36.822Z,99.55
2023-05-15T06:07:36.801Z,99.99
2023-05-15T06:08:36.795Z,99.99
2023-05-15T06:09:36.774Z,97.16
2023-05-15T06:10:36.786Z,98.18
2023-05-15T06:11:36.748Z,96.75
2023-05-15T06:12:36.762Z,98.33
2023-05-15T06:13:36.728Z,98.94
2023-05-15T06:14:36.720Z,98.03
2023-05-15T06:15:36.715Z,96.41
2023-05-15T06:16:36.720Z,96.81
2023-05-15T06:17:36.738Z,98.69
2023-05-15T06:18:36.741Z,99.99
2023-05-15T06:19:36.661Z,99.99
2023-05-15T06:20:36.651Z,99.90
2023-05-15T06:21:36.636Z,98.48
2023-05-15T06:22:36.629Z,99.39
2023-05-15T06:23:36.616Z,99.24
2023-05-15T06:24:36.611Z,96.61
2023-05-15T06:25:36.606Z,98.28
2023-05-15T06:26:36.642Z,99.99
2023-05-15T06:27:36.604Z,99.99
2023-05-15T06:28:36.586Z,99.99
2023-05-15T06:29:36.553Z,99.99
2023-05-15T06:30:36.569Z,99.99
2023-05-15T06:31:36.535Z,99.99
2023-05-15T06:32:36.583Z,99.99
2023-05-15T06:33:36.506Z,99.99
2023-05-15T06:34:36.496Z,99.99
2023-05-15T06:35:36.487Z,99.99
2023-05-15T06:36:36.473Z,99.99
2023-05-15T06:37:36.462Z,99.99
2023-05-15T06:38:36.452Z,99.99
2023-05-15T06:39:36.440Z,99.99
2023-05-15T06:40:36.431Z,99.99
2023-05-15T06:41:36.412Z,99.99
2023-05-15T06:42:36.432Z,99.99
2023-05-15T06:43:36.534Z,99.99
2023-05-15T06:44:36.389Z,99.99
2023-05-15T06:45:36.513Z,99.99
2023-05-15T06:46:36.415Z,99.99
2023-05-15T06:47:36.426Z,99.99
2023-05-15T06:48:36.344Z,99.99
2023-05-15T06:49:36.329Z,99.99
2023-05-15T06:50:36.323Z,99.99
2023-05-15T06:51:36.304Z,99.99
2023-05-15T06:52:36.295Z,99.99
2023-05-15T06:53:36.283Z,99.99
2023-05-15T06:54:36.273Z,99.99
2023-05-15T06:55:36.265Z,99.99
2023-05-15T06:56:36.258Z,99.99
2023-05-15T06:57:36.237Z,99.99
2023-05-15T06:58:36.251Z,99.99
2023-05-15T06:59:36.216Z,99.99
2023-05-15T07:00:36.202Z,99.99
2023-05-15T07:01:36.272Z,99.99
2023-05-15T07:02:36.221Z,99.99
2023-05-15T07:03:36.169Z,99.99
2023-05-15T07:04:36.217Z,99.99
2023-05-15T07:05:36.150Z,99.99
2023-05-15T07:06:36.143Z,99.99
2023-05-15T07:07:36.157Z,99.99
2023-05-15T07:08:36.136Z,99.99
2023-05-15T07:09:36.121Z,99.99
2023-05-15T07:10:36.109Z,99.99
2023-05-15T07:11:36.078Z,99.99
2023-05-15T07:12:36.069Z,99.99
2023-05-15T07:13:36.060Z,99.99
2023-05-15T07:14:36.072Z,99.99
2023-05-15T07:15:36.036Z,99.99
2023-05-15T07:16:36.032Z,99.99
2023-05-15T07:17:36.070Z,99.99
2023-05-15T07:18:36.106Z,99.99
2023-05-15T07:19:36.092Z,99.99
2023-05-15T07:20:36.162Z,99.99
2023-05-15T07:21:35.977Z,99.99
2023-05-15T07:22:44.417Z,99.99
2023-05-15T07:23:36.977Z,99.99
2023-05-15T07:24:36.674Z,99.99
2023-05-15T07:25:35.926Z,99.99
2023-05-15T07:26:43.434Z,99.99
2023-05-15T07:27:35.906Z,99.99
2023-05-15T07:28:35.910Z,99.99
2023-05-15T07:29:35.925Z,99.99
2023-05-15T07:30:36.094Z,99.99
2023-05-15T07:31:35.902Z,99.99
2023-05-15T07:32:35.891Z,99.99
2023-05-15T07:33:35.842Z,99.99
2023-05-15T07:34:35.829Z,99.99
2023-05-15T07:35:35.816Z,99.99
2023-05-15T07:36:35.809Z,99.99
2023-05-15T07:37:35.794Z,99.99
2023-05-15T07:38:35.784Z,99.99
2023-05-15T07:39:35.842Z,99.99
2023-05-15T07:40:35.763Z,99.99
2023-05-15T07:41:35.750Z,99.99
2023-05-15T07:42:35.743Z,99.99
2023-05-15T07:43:35.730Z,99.99
2023-05-15T07:44:35.713Z,99.99
2023-05-15T07:45:35.753Z,99.99
2023-05-15T07:46:35.878Z,99.99
2023-05-15T07:47:35.828Z,99.99
2023-05-15T07:48:35.669Z,99.99
2023-05-15T07:49:35.657Z,99.99
2023-05-15T07:50:35.655Z,99.99
2023-05-15T07:51:35.648Z,99.99
2023-05-15T07:52:35.626Z,99.99
2023-05-15T07:53:35.642Z,99.99
2023-05-15T07:54:35.624Z,99.99
2023-05-15T07:55:35.594Z,99.99
2023-05-15T07:56:35.613Z,99.99
2023-05-15T07:57:35.565Z,99.99
2023-05-15T07:58:35.620Z,99.99
2023-05-15T07:59:35.620Z,99.99
2023-05-15T08:00:35.541Z,99.99
2023-05-15T08:01:35.524Z,99.99
2023-05-15T08:02:35.731Z,99.99
2023-05-15T08:03:35.562Z,99.99
2023-05-15T08:04:35.604Z,99.99
2023-05-15T08:05:35.491Z,99.99
2023-05-15T08:06:35.472Z,99.99
2023-05-15T08:07:35.494Z,99.99
2023-05-15T08:08:35.451Z,99.99
2023-05-15T08:09:35.446Z,99.99
2023-05-15T08:10:35.431Z,99.99
2023-05-15T08:11:35.422Z,99.99
2023-05-15T08:12:35.416Z,99.99
2023-05-15T08:13:35.409Z,99.99
2023-05-15T08:14:35.525Z,99.99
2023-05-15T08:15:35.400Z,99.99
2023-05-15T08:16:35.420Z,99.99
2023-05-15T08:17:35.416Z,99.99
2023-05-15T08:18:35.433Z,99.99
2023-05-15T08:19:35.327Z,99.99
2023-05-15T08:20:35.324Z,99.59
2023-05-15T08:21:35.328Z,98.19
2023-05-15T08:22:35.306Z,99.99
2023-05-15T08:23:35.284Z,99.99
2023-05-15T08:24:35.293Z,99.99
2023-05-15T08:25:35.294Z,99.99
2023-05-15T08:26:35.254Z,99.99
2023-05-15T08:27:35.251Z,99.99
2023-05-15T08:28:35.248Z,99.99
2023-05-15T08:29:36.791Z,99.99
2023-05-15T08:30:35.211Z,99.99
2023-05-15T08:31:35.272Z,99.59
2023-05-15T08:32:35.220Z,97.30
2023-05-15T08:33:35.183Z,94.80
2023-05-15T08:34:35.247Z,95.10
2023-05-15T08:35:35.245Z,96.60
2023-05-15T08:36:35.909Z,93.95
2023-05-15T08:37:35.147Z,95.14
2023-05-15T08:38:35.126Z,96.34
2023-05-15T08:39:35.141Z,96.19
2023-05-15T08:41:02.719Z,95.09
2023-05-15T08:42:02.600Z,96.04
2023-05-15T08:43:02.585Z,95.71
2023-05-15T08:44:02.575Z,93.81
2023-05-15T08:45:02.570Z,94.26
2023-05-15T08:46:02.584Z,94.61
2023-05-15T08:47:02.666Z,94.07
2023-05-15T08:48:02.625Z,91.57
2023-05-15T08:49:02.642Z,91.53
2023-05-15T08:50:02.598Z,92.43
2023-05-15T08:51:02.506Z,91.13
2023-05-15T08:52:03.010Z,93.32
2023-05-15T08:53:02.482Z,91.83
2023-05-15T08:54:02.469Z,90.28
2023-05-15T08:55:02.494Z,91.63
2023-05-15T08:56:02.449Z,92.36
2023-05-15T08:57:02.447Z,93.27
2023-05-15T08:58:02.435Z,92.63
2023-05-15T08:59:02.424Z,91.23
2023-05-15T09:00:02.418Z,92.57
2023-05-15T09:01:02.442Z,92.33
2023-05-15T09:02:02.420Z,92.38
2023-05-15T09:03:02.551Z,91.49
2023-05-15T09:04:02.553Z,89.99
2023-05-15T09:05:02.388Z,93.96
2023-05-15T09:06:02.395Z,94.50
2023-05-15T09:07:02.338Z,95.55
2023-05-15T09:08:02.326Z,94.95
2023-05-15T09:09:02.315Z,94.56
2023-05-15T09:10:02.309Z,96.85
2023-05-15T09:11:02.295Z,94.76
2023-05-15T09:12:02.293Z,96.46
2023-05-15T09:13:02.285Z,94.37
2023-05-15T09:14:02.284Z,95.21
2023-05-15T09:15:02.259Z,93.57
2023-05-15T09:16:02.247Z,94.46
2023-05-15T09:17:02.537Z,94.87
2023-05-15T09:18:02.315Z,92.63
2023-05-15T09:19:02.278Z,93.42
2023-05-15T09:20:02.204Z,93.32
2023-05-15T09:21:02.196Z,94.07
2023-05-15T09:22:02.321Z,92.98
2023-05-15T09:23:02.381Z,92.97
2023-05-15T09:24:02.419Z,95.11
2023-05-15T09:25:02.151Z,95.21
2023-05-15T09:26:02.137Z,93.48
2023-05-15T09:27:02.129Z,92.69
2023-05-15T09:28:02.123Z,92.10
2023-05-15T09:29:02.112Z,93.44
2023-05-15T09:30:02.095Z,92.65
2023-05-15T09:31:02.096Z,89.80
2023-05-15T09:32:02.168Z,92.52
2023-05-15T09:33:02.096Z,95.36
2023-05-15T09:34:02.071Z,95.01
2023-05-15T09:35:02.063Z,96.11
2023-05-15T09:36:02.036Z,96.16
2023-05-15T09:37:02.020Z,94.57
2023-05-15T09:38:02.081Z,92.48
2023-05-15T09:39:02.005Z,91.88
2023-05-15T09:40:01.997Z,91.24
2023-05-15T09:41:02.053Z,90.55
2023-05-15T09:42:02.135Z,90.50
2023-05-15T09:43:02.227Z,90.91
2023-05-15T09:44:02.240Z,89.87
2023-05-15T09:45:01.937Z,87.84
2023-05-15T09:46:02.043Z,88.71
2023-05-15T09:47:02.001Z,90.50
2023-05-15T09:48:02.001Z,90.55
2023-05-15T09:49:01.901Z,91.19
2023-05-15T09:50:01.893Z,91.73
2023-05-15T09:51:01.880Z,94.01
2023-05-15T09:52:01.868Z,93.27
2023-05-15T09:53:01.861Z,93.07
2023-05-15T09:54:01.903Z,94.46
2023-05-15T09:55:01.851Z,94.15
2023-05-15T09:56:01.828Z,96.31
2023-05-15T09:57:01.818Z,95.06
2023-05-15T09:58:01.804Z,93.96
2023-05-15T09:59:01.888Z,93.17
2023-05-15T10:00:01.792Z,92.77
2023-05-15T10:01:01.775Z,94.56
2023-05-15T10:02:01.970Z,93.80
2023-05-15T10:03:01.981Z,97.15
2023-05-15T10:04:02.043Z,94.52
2023-05-15T10:05:01.858Z,93.98
2023-05-15T10:06:01.805Z,92.37
2023-05-15T10:07:01.833Z,94.50
2023-05-15T10:08:01.905Z,96.55
2023-05-15T10:09:01.937Z,95.46
2023-05-15T10:10:01.968Z,93.02
2023-05-15T10:11:01.899Z,91.04
2023-05-15T10:12:01.907Z,89.65
2023-05-15T10:13:01.959Z,90.59
2023-05-15T10:14:01.908Z,90.80
2023-05-15T10:15:01.903Z,89.46
2023-05-15T10:16:01.952Z,86.98
2023-05-15T10:17:01.619Z,88.79
2023-05-15T10:18:01.950Z,90.99
2023-05-15T10:19:04.858Z,90.06
2023-05-15T10:20:01.586Z,87.57
2023-05-15T10:21:01.569Z,88.07
2023-05-15T10:22:01.553Z,88.21
2023-05-15T10:23:01.543Z,86.91
2023-05-15T10:24:01.533Z,86.42
2023-05-15T10:25:01.520Z,87.71
2023-05-15T10:26:01.533Z,87.97
2023-05-15T10:27:01.503Z,86.08
2023-05-15T10:28:01.507Z,87.19
2023-05-15T10:29:01.479Z,87.19
2023-05-15T10:30:01.504Z,85.22
2023-05-15T10:31:01.623Z,84.25
2023-05-15T10:32:01.461Z,85.48
2023-05-15T10:33:01.466Z,85.88
2023-05-15T10:34:01.495Z,86.12
2023-05-15T10:35:01.466Z,86.91
2023-05-15T10:36:01.461Z,86.59
2023-05-15T10:37:01.417Z,84.76
2023-05-15T10:38:01.389Z,84.22
2023-05-15T10:39:01.375Z,84.03
2023-05-15T10:40:01.385Z,84.48
2023-05-15T10:41:15.759Z,83.25
2023-05-15T10:42:02.418Z,83.25
2023-05-15T10:43:01.341Z,81.01
2023-05-15T10:44:01.324Z,83.05
2023-05-15T10:45:01.308Z,85.52
2023-05-15T10:46:01.300Z,86.14
2023-05-15T10:47:01.338Z,83.97
2023-05-15T10:48:01.313Z,83.89
2023-05-15T10:49:01.276Z,81.60
2023-05-15T10:50:01.274Z,81.82
2023-05-15T10:51:01.271Z,83.19
2023-05-15T10:52:01.322Z,85.02
2023-05-15T10:53:01.236Z,85.62
2023-05-15T10:54:01.224Z,85.88
2023-05-15T10:55:01.205Z,84.31
2023-05-15T10:56:01.265Z,84.20
2023-05-15T10:57:01.184Z,83.71
2023-05-15T10:58:01.215Z,84.28
2023-05-15T10:59:01.167Z,83.95
2023-05-15T11:00:01.170Z,81.07
2023-05-15T11:01:01.167Z,82.42
2023-05-15T11:02:01.133Z,80.54
2023-05-15T11:03:01.366Z,81.90
2023-05-15T11:04:01.136Z,83.01
2023-05-15T11:05:01.104Z,84.64
2023-05-15T11:06:01.113Z,87.88
2023-05-15T11:07:01.084Z,84.76
2023-05-15T11:08:01.101Z,83.35
2023-05-15T11:09:01.114Z,84.15
2023-05-15T11:10:01.052Z,84.74
2023-05-15T11:11:01.040Z,84.70
2023-05-15T11:12:01.037Z,83.73
2023-05-15T11:13:01.024Z,82.57
2023-05-15T11:14:01.035Z,82.20
2023-05-15T11:15:00.999Z,80.63
2023-05-15T11:16:00.990Z,81.78
2023-05-15T11:17:01.082Z,82.65
2023-05-15T11:18:01.001Z,84.84
2023-05-15T11:19:01.014Z,83.63
2023-05-15T11:20:00.970Z,82.34
2023-05-15T11:21:00.931Z,83.07
2023-05-15T11:22:00.930Z,82.04
2023-05-15T11:23:00.936Z,80.99
2023-05-15T11:24:00.945Z,83.13
2023-05-15T11:25:00.891Z,82.02
2023-05-15T11:26:00.885Z,80.47
2023-05-15T11:27:00.878Z,80.04
2023-05-15T11:28:00.868Z,79.74
2023-05-15T11:29:00.855Z,79.74
2023-05-15T11:30:00.867Z,80.08
2023-05-15T11:31:00.843Z,81.03
2023-05-15T11:32:00.822Z,79.50
2023-05-15T11:33:00.864Z,79.11
2023-05-15T11:34:00.809Z,77.22
2023-05-15T11:35:00.820Z,75.24
2023-05-15T11:36:00.832Z,75.31
2023-05-15T11:37:00.774Z,75.78
2023-05-15T11:38:00.765Z,77.41
2023-05-15T11:39:00.753Z,77.75
2023-05-15T11:40:00.737Z,78.27
2023-05-15T11:41:00.730Z,76.28
2023-05-15T11:42:01.204Z,76.97
2023-05-15T11:43:00.788Z,77.58
2023-05-15T11:44:00.708Z,77.58
2023-05-15T11:45:00.691Z,76.02
2023-05-15T11:46:00.869Z,74.16
2023-05-15T11:47:00.868Z,74.46
2023-05-15T11:48:00.725Z,73.56
2023-05-15T11:49:00.653Z,73.27
2023-05-15T11:50:00.681Z,73.76
2023-05-15T11:51:00.652Z,73.50
2023-05-15T11:52:00.616Z,71.11
2023-05-15T11:53:00.610Z,72.37
2023-05-15T11:54:00.599Z,72.44
2023-05-15T11:55:00.588Z,74.42
2023-05-15T11:56:00.586Z,72.83
2023-05-15T11:57:00.576Z,73.69
2023-05-15T11:58:00.581Z,75.04
2023-05-15T11:59:00.647Z,72.09
2023-05-15T12:00:00.626Z,71.91
2023-05-15T12:01:00.654Z,72.97
2023-05-15T12:02:00.601Z,72.47
2023-05-15T12:03:00.665Z,72.44
2023-05-15T12:04:00.790Z,72.50
2023-05-15T12:05:00.529Z,72.14
2023-05-15T12:06:00.581Z,72.86
2023-05-15T12:07:02.789Z,74.12
2023-05-15T12:08:00.469Z,74.15
2023-05-15T12:09:00.456Z,72.69
2023-05-15T12:10:00.444Z,71.14
2023-05-15T12:11:00.506Z,71.34
2023-05-15T12:12:00.458Z,71.31
2023-05-15T12:13:00.410Z,71.47
2023-05-15T12:14:00.460Z,69.75
2023-05-15T12:15:00.558Z,69.78
2023-05-15T12:16:00.486Z,66.26
2023-05-15T12:17:00.455Z,67.41
2023-05-15T12:18:00.475Z,68.33
2023-05-15T12:19:00.378Z,67.61
2023-05-15T12:20:00.339Z,68.20
2023-05-15T12:21:00.341Z,68.40
2023-05-15T12:22:00.327Z,68.17
2023-05-15T12:23:00.327Z,69.20
2023-05-15T12:24:07.880Z,69.16
2023-05-15T12:25:00.315Z,67.71
2023-05-15T12:26:00.286Z,67.71
2023-05-15T12:27:00.278Z,66.78
2023-05-15T12:28:00.272Z,67.61
2023-05-15T12:29:00.320Z,68.93
2023-05-15T12:30:00.246Z,68.96
2023-05-15T12:31:00.248Z,69.32
2023-05-15T12:32:00.268Z,70.35
2023-05-15T12:33:00.256Z,70.58
2023-05-15T12:34:00.229Z,70.28
2023-05-15T12:35:00.245Z,70.51
2023-05-15T12:36:01.790Z,67.80
2023-05-15T12:37:00.172Z,67.38
2023-05-15T12:38:00.165Z,68.43
2023-05-15T12:39:00.154Z,69.16
2023-05-15T12:40:00.195Z,70.32
2023-05-15T12:41:00.158Z,69.98
2023-05-15T12:42:00.191Z,68.40
2023-05-15T12:43:00.170Z,67.25
2023-05-15T12:44:00.142Z,66.16
2023-05-15T12:45:00.140Z,66.85
2023-05-15T12:46:00.124Z,66.55
2023-05-15T12:47:00.091Z,68.24
2023-05-15T12:48:00.097Z,66.42
2023-05-15T12:49:00.084Z,68.53
2023-05-15T12:50:00.087Z,65.83
2023-05-15T12:51:00.030Z,65.07
2023-05-15T12:52:00.017Z,65.50
2023-05-15T12:53:00.013Z,66.16
2023-05-15T12:53:59.999Z,66.69
2023-05-15T12:54:59.992Z,64.28